• Join FlightAware (Why Join?)
  • Login
  • US Flag 
02:31AM EDT


 

Airport Tracker/Info


-or-


 

Live Flight TrackerFlight Track Log ✈ DAL3643 ✈ 26-Jun-2013 ✈ KMDW - KDTW

Flight Track Log - Related Links

Times and Time Zones

All times are in EDT time to prevent confusion due to time zone crossing. See the DAL3643 flight status page for this flight to view local times or setup timezone preferences in your user account.

Time Position Orientation Groundspeed Altitude Reporting Facility
EDT Latitude Longitude Course Direction KTS MPH feet Rate Location/Type
06:11PM 41.7667 -87.9000 242° Southwest 256 295 4,500  Level Chicago TRACON
06:12PM 42.1990 -87.9129 344° North  Level FlightAware Approximate
06:12PM 41.7500 -88.0000 257° West 267 307 7,300  Level Chicago TRACON
06:13PM 42.3036 -87.9548 344° North  Level FlightAware Approximate
06:13PM 41.7833 -88.1000 294° West 258 297 9,800  Level Chicago TRACON
06:14PM 42.4083 -87.9967 344° North  Level FlightAware Approximate
06:14PM 41.8500 -88.1000 360° North 323 372 10,400  Level Chicago TRACON
06:15PM 42.5020 -88.0389 348° North  Level FlightAware Approximate
06:15PM 41.9533 -88.0675 13° North 329 379 12,100  Level Chicago Center
06:16PM 42.0467 -88.0594 North 336 387 13,400 1,200 Climbing Chicago Center
06:17PM 42.1603 -88.0575 North 341 392 14,700 1,080 Climbing Chicago Center
06:18PM 42.2572 -88.0606 359° North 350 403 15,700 900 Climbing Chicago Center
06:19PM 42.3633 -88.0644 358° North 353 406 16,600 780 Climbing Chicago Center
06:20PM 42.4603 -88.0394 11° North 366 421 17,400 540 Climbing Chicago Center
06:21PM 42.5417 -87.9492 39° Northeast 376 433 17,800 480 Climbing Chicago Center
06:22PM 42.6258 -87.8519 40° Northeast 389 448 18,500 540 Climbing Chicago Center
06:23PM 42.7097 -87.7556 40° Northeast 394 453 19,000 240 Climbing Chicago Center
06:24PM 42.8067 -87.6317 43° Northeast 408 470 19,000  Level Chicago Center
06:25PM 42.8383 -87.4842 74° East 408 470 19,000 -60 Level Chicago Center
06:26PM 42.8658 -87.3456 75° East 409 471 18,900  Descending Chicago Center
06:27PM 42.8942 -87.1961 75° East 410 472 19,000  Climbing Chicago Center
06:28PM 42.9272 -87.0167 76° East 408 470 19,000  Level Chicago Center
06:29PM 42.9547 -86.8669 76° East 408 470 19,000  Level Chicago Center
06:30PM 42.9761 -86.7158 79° East 408 470 19,000  Level Chicago Center
06:32PM 42.9883 -86.5625 84° East 409 471 19,000  Level Chicago Center
06:33PM 43.0008 -86.4106 84° East 404 465 19,000  Level Chicago Center
06:34PM 43.0125 -86.2569 84° East 407 468 19,000  Level Chicago Center
06:35PM 43.0267 -86.0742 84° East 407 468 19,000  Level Chicago Center
06:36PM 43.0397 -85.9092 84° East 412 474 19,000  Level Chicago Center
06:37PM 43.0494 -85.7714 84° East 420 483 19,000 -60 Level Chicago Center
06:38PM 43.0636 -85.5853 84° East 415 478 18,900  Descending Chicago Center
06:39PM 43.0756 -85.4308 84° East 411 473 19,000  Climbing Chicago Center
06:40PM 43.0861 -85.2756 85° East 410 472 19,000 -60 Level Chicago Center
06:41PM 43.0722 -85.1256 97° East 391 450 18,900  Descending Chicago Center
06:42PM 43.0486 -84.9736 102° East 406 467 19,000  Climbing Chicago Center
06:43PM 43.0194 -84.7933 102° East 405 466 19,000  Level Chicago Center
06:44PM 42.9947 -84.6411 102° East 409 471 19,000 -240 Level Chicago Center
06:45PM 42.9692 -84.4897 103° East 410 472 18,600 -1,020 Descending Chicago Center
06:46PM 42.9439 -84.3428 103° East 403 464 16,900 -1,560 Descending Chicago Center
06:47PM 42.9214 -84.2072 103° East 375 432 15,400 -1,500 Descending Chicago Center
06:48PM 42.8950 -84.0750 105° East 378 435 14,200 -1,380 Descending Cleveland Center
06:48PM 42.8847 -83.9978 100° East 371 427 13,500 -1,200 Descending Cleveland Center
06:49PM 42.8575 -83.8661 106° East 363 418 12,300 -720 Descending Cleveland Center
06:51PM 42.8275 -83.7369 108° East 299 344 12,000 -900 Descending Cleveland Center
06:52PM 42.7519 -83.6850 153° Southeast 300 345 10,400 -1,320 Descending Cleveland Center
06:53PM 42.6667 -83.6017 144° Southeast 287 330 9,000 -1,200 Descending Cleveland Center
06:54PM 42.6306 -83.5436 130° Southeast 291 335 8,100 -1,020 Descending Cleveland Center
06:55PM 42.5936 -83.4431 116° Southeast 264 304 7,200 -1,080 Descending Cleveland Center
06:56PM 42.5706 -83.3547 109° East 232 267 6,000 -900 Descending Cleveland Center
06:57PM 42.5475 -83.2719 111° Southeast 233 268 5,400 -1,020 Descending Cleveland Center
06:58PM 42.4964 -83.2331 151° Southeast 232 267 4,000 -720 Descending Cleveland Center
06:59PM 42.4339 -83.2333 180° South 233 268 4,000  Level Cleveland Center
07:00PM 42.3750 -83.2533 194° South 200 230 4,000 -600 Level Cleveland Center
07:01PM 42.3281 -83.2964 214° Southwest 194 223 2,900 -1,080 Descending Cleveland Center
07:02PM 42.2772 -83.3306 206° Southwest 179 206 1,800 -900 Descending Cleveland Center
07:03PM 42.2369 -83.3597 208° Southwest 145 167 1,000 -840 Descending Cleveland Center